CheckWX is a tool to help pilots better visualize weather data.  It is not intended as a substitute for an official pre-flight weather briefing.

22:13:03 UTC

TJIG METAR
Fernando Luis Ribas Dominicci Airport
San Juan, Puerto Rico, USA
Current

27 mins ago

TJIG 222146Z 11006KT 10SM SCT020 SCT030 BKN060 28/24 A2989
Observed
Oct-22 @ 21:46 UTC
Wind
  • 110° at 6 KTS
Visibility
10 SM
Flight Rules
VFR
Cloud Levels
  • Scattered at 2,000' AGL
  • Scattered at 3,000' AGL
  • Broken at 6,000' AGL
Temperature
28°C / 82°F
Dewpoint
24°C / 75°F
Heat Index
32°C / 89°F
Humidity
79%
Altimeter
29.89" Hg
Pressure
1012.22 hPa
Previous

1 hour ago

TJIG 222053Z 10006KT 10SM SCT020 SCT030 BKN070 28/23 A2989
Observed
Oct-22 @ 20:53 UTC
Wind
  • 100° at 6 KTS
Visibility
10 SM
Flight Rules
VFR
Cloud Levels
  • Scattered at 2,000' AGL
  • Scattered at 3,000' AGL
  • Broken at 7,000' AGL
Temperature
28°C / 82°F
Dewpoint
23°C / 73°F
Heat Index
31°C / 87°F
Humidity
74%
Altimeter
29.89" Hg
Pressure
1012.22 hPa
Previous

2 hours ago

TJIG 221953Z 18003KT 10SM SCT020 SCT030 BKN080 28/23 A2987
Observed
Oct-22 @ 19:53 UTC
Wind
  • 180° at 3 KTS
Visibility
10 SM
Flight Rules
VFR
Cloud Levels
  • Scattered at 2,000' AGL
  • Scattered at 3,000' AGL
  • Broken at 8,000' AGL
Temperature
28°C / 82°F
Dewpoint
23°C / 73°F
Heat Index
31°C / 87°F
Humidity
74%
Altimeter
29.87" Hg
Pressure
1011.52 hPa